createdAt,value
2019-01-10T00:01:03.426Z,3.20
2019-01-10T00:03:31.630Z,3.30
2019-01-10T00:05:59.806Z,3.30
2019-01-10T00:08:27.983Z,3.30
2019-01-10T00:10:56.138Z,3.30
2019-01-10T00:13:24.342Z,3.40
2019-01-10T00:15:52.542Z,3.40
2019-01-10T00:18:20.743Z,3.30
2019-01-10T00:20:48.934Z,3.30
2019-01-10T00:23:17.114Z,3.40
2019-01-10T00:25:45.358Z,3.30
2019-01-10T00:28:13.562Z,3.30
2019-01-10T00:30:41.970Z,3.30
2019-01-10T00:33:10.146Z,3.30
2019-01-10T00:35:38.329Z,3.20
2019-01-10T00:38:06.560Z,3.20
2019-01-10T00:40:34.750Z,3.20
2019-01-10T00:43:02.955Z,3.10
2019-01-10T00:45:31.139Z,3.10
2019-01-10T00:47:59.233Z,3.20
2019-01-10T00:50:27.515Z,3.20
2019-01-10T00:52:55.706Z,3.10
2019-01-10T00:55:23.895Z,3.30
2019-01-10T00:57:52.030Z,3.20
2019-01-10T01:00:21.465Z,3.20
2019-01-10T01:02:49.933Z,3.40
2019-01-10T01:05:18.726Z,3.40
2019-01-10T01:07:46.934Z,3.40
2019-01-10T01:10:16.414Z,3.50
2019-01-10T01:12:44.688Z,3.40
2019-01-10T01:15:13.675Z,3.50
2019-01-10T01:17:41.875Z,3.60
2019-01-10T01:20:10.338Z,3.40
2019-01-10T01:22:38.570Z,3.50
2019-01-10T01:25:06.994Z,3.40
2019-01-10T01:27:35.198Z,3.50
2019-01-10T01:30:04.118Z,3.40
2019-01-10T01:32:32.337Z,3.30
2019-01-10T01:35:00.510Z,3.20
2019-01-10T01:37:28.693Z,3.20
2019-01-10T01:39:57.031Z,3.20
2019-01-10T01:42:25.227Z,3.30
2019-01-10T01:44:53.478Z,3.40
2019-01-10T01:47:21.971Z,3.40
2019-01-10T01:49:50.145Z,3.40
2019-01-10T01:52:18.317Z,3.40
2019-01-10T01:54:46.535Z,3.10
2019-01-10T01:57:14.722Z,3.20
2019-01-10T01:59:43.299Z,3.20
2019-01-10T02:02:11.626Z,3.20
2019-01-10T02:04:39.830Z,3.10
2019-01-10T02:07:08.042Z,3.10
2019-01-10T02:09:37.686Z,3.00
2019-01-10T02:12:06.273Z,3.10
2019-01-10T02:14:34.786Z,3.00
2019-01-10T02:17:02.965Z,3.10
2019-01-10T02:19:31.134Z,3.10
2019-01-10T02:21:59.362Z,3.10
2019-01-10T02:24:27.546Z,3.00
2019-01-10T02:26:55.754Z,3.20
2019-01-10T02:29:23.958Z,3.30
2019-01-10T02:31:52.139Z,3.40
2019-01-10T02:34:20.362Z,3.40
2019-01-10T02:36:48.464Z,3.30
2019-01-10T02:39:16.592Z,3.20
2019-01-10T02:41:44.799Z,3.30
2019-01-10T02:44:13.007Z,3.40
2019-01-10T02:46:41.215Z,3.40
2019-01-10T02:49:09.407Z,3.20
2019-01-10T02:51:37.595Z,3.20
2019-01-10T02:54:05.667Z,3.20
2019-01-10T02:56:33.738Z,3.30
2019-01-10T02:59:01.795Z,3.20
2019-01-10T03:01:29.854Z,3.10
2019-01-10T03:03:58.181Z,3.00
2019-01-10T03:06:26.298Z,2.90
2019-01-10T03:08:54.351Z,2.90
2019-01-10T03:11:22.710Z,3.00
2019-01-10T03:13:50.768Z,3.10
2019-01-10T03:16:18.800Z,3.10
2019-01-10T03:18:46.946Z,3.10
2019-01-10T03:21:15.014Z,3.20
2019-01-10T03:23:43.053Z,2.90
2019-01-10T03:26:11.110Z,3.00
2019-01-10T03:28:39.153Z,3.20
2019-01-10T03:31:07.192Z,3.10
2019-01-10T03:33:35.250Z,3.10
2019-01-10T03:36:03.319Z,2.90
2019-01-10T03:38:31.387Z,3.00
2019-01-10T03:40:59.427Z,3.20
2019-01-10T03:43:27.488Z,3.20
2019-01-10T03:45:55.579Z,3.10
2019-01-10T03:48:24.977Z,3.20
2019-01-10T03:50:53.107Z,3.10
2019-01-10T03:53:21.146Z,3.10
2019-01-10T03:55:49.206Z,3.10
2019-01-10T03:58:17.499Z,2.90
2019-01-10T04:00:45.530Z,2.90
2019-01-10T04:03:13.578Z,2.90
2019-01-10T04:05:41.749Z,2.90
2019-01-10T04:08:09.906Z,2.80
2019-01-10T04:10:37.973Z,2.70
2019-01-10T04:13:06.032Z,2.70
2019-01-10T04:15:34.091Z,2.80
2019-01-10T04:18:02.231Z,2.80
2019-01-10T04:20:30.287Z,2.80
2019-01-10T04:22:58.351Z,2.90
2019-01-10T04:25:26.387Z,2.80
2019-01-10T04:27:54.455Z,2.90
2019-01-10T04:30:22.514Z,2.70
2019-01-10T04:32:50.568Z,2.80
2019-01-10T04:35:18.619Z,2.90
2019-01-10T04:37:46.699Z,2.90
2019-01-10T04:40:16.290Z,2.90
2019-01-10T04:42:44.374Z,2.90
2019-01-10T04:45:12.722Z,2.80
2019-01-10T04:47:40.772Z,2.70
2019-01-10T04:50:09.634Z,2.70
2019-01-10T04:52:37.687Z,2.90
2019-01-10T04:55:05.905Z,3.00
2019-01-10T04:57:35.650Z,2.90
2019-01-10T05:00:04.878Z,2.80
2019-01-10T05:02:32.938Z,2.80
2019-01-10T05:05:01.865Z,2.80
2019-01-10T05:07:30.447Z,2.70
2019-01-10T05:09:58.502Z,2.60
2019-01-10T05:12:27.787Z,2.60
2019-01-10T05:14:55.835Z,2.50
2019-01-10T05:17:23.859Z,2.60
2019-01-10T05:19:51.932Z,2.60
2019-01-10T05:22:19.986Z,2.70
2019-01-10T05:24:48.029Z,2.60
2019-01-10T05:27:16.442Z,2.50
2019-01-10T05:29:44.505Z,2.50
2019-01-10T05:32:12.575Z,2.40
2019-01-10T05:34:40.735Z,2.50
2019-01-10T05:37:08.891Z,2.40
2019-01-10T05:39:36.975Z,2.50
2019-01-10T05:42:05.123Z,2.50
2019-01-10T05:44:33.218Z,2.60
2019-01-10T05:47:01.303Z,2.50
2019-01-10T05:49:29.466Z,2.40
2019-01-10T05:51:57.605Z,2.60
2019-01-10T05:54:25.750Z,2.50
2019-01-10T05:56:54.041Z,2.70
2019-01-10T05:59:22.148Z,2.70
2019-01-10T06:01:50.294Z,2.80
2019-01-10T06:04:18.379Z,2.50
2019-01-10T06:06:46.470Z,2.50
2019-01-10T06:09:14.552Z,2.50
2019-01-10T06:11:42.631Z,2.40
2019-01-10T06:14:10.726Z,2.40
2019-01-10T06:16:38.770Z,2.60
2019-01-10T06:19:06.865Z,2.60
2019-01-10T06:21:34.944Z,2.50
2019-01-10T06:24:03.370Z,2.30
2019-01-10T06:26:31.510Z,2.40
2019-01-10T06:28:59.570Z,2.50
2019-01-10T06:31:27.755Z,2.40
2019-01-10T06:33:55.810Z,2.30
2019-01-10T06:36:23.987Z,2.30
2019-01-10T06:38:52.450Z,2.50
2019-01-10T06:41:20.521Z,2.60
2019-01-10T06:43:48.658Z,2.60
2019-01-10T06:46:16.741Z,2.30
2019-01-10T06:48:44.819Z,2.30
2019-01-10T06:51:12.918Z,2.40
2019-01-10T06:53:41.009Z,2.50
2019-01-10T06:56:09.122Z,2.40
2019-01-10T06:58:37.562Z,2.40
2019-01-10T07:01:05.775Z,2.50
2019-01-10T07:03:33.853Z,2.40
2019-01-10T07:06:01.895Z,2.40
2019-01-10T07:08:29.966Z,2.50
2019-01-10T07:10:58.289Z,2.50
2019-01-10T07:13:26.327Z,2.40
2019-01-10T07:15:54.370Z,2.30
2019-01-10T07:18:22.522Z,2.30
2019-01-10T07:20:59.745Z,2.30
2019-01-10T07:23:27.786Z,2.20
2019-01-10T07:25:56.033Z,2.20
2019-01-10T07:28:24.722Z,2.20
2019-01-10T07:30:53.711Z,2.40
2019-01-10T07:33:22.087Z,2.60
2019-01-10T07:35:52.314Z,2.50
2019-01-10T07:38:20.437Z,2.60
2019-01-10T07:40:48.530Z,2.70
2019-01-10T07:43:19.882Z,2.70
2019-01-10T07:45:47.922Z,2.30
2019-01-10T07:48:15.989Z,2.30
2019-01-10T07:50:44.093Z,2.20
2019-01-10T07:53:12.411Z,2.20
2019-01-10T07:55:40.568Z,2.10
2019-01-10T07:58:08.626Z,2.20
2019-01-10T08:00:36.803Z,2.20
2019-01-10T08:03:05.369Z,2.20
2019-01-10T08:05:33.661Z,2.20
2019-01-10T08:08:01.704Z,2.20
2019-01-10T08:10:29.787Z,2.30
2019-01-10T08:12:58.111Z,2.30
2019-01-10T08:15:26.267Z,2.40
2019-01-10T08:17:54.317Z,2.40
2019-01-10T08:20:22.810Z,2.60
2019-01-10T08:22:50.880Z,2.50
2019-01-10T08:25:18.998Z,2.70
2019-01-10T08:27:47.127Z,2.50
2019-01-10T08:30:16.633Z,2.60
2019-01-10T08:32:44.790Z,2.50
2019-01-10T08:35:14.469Z,2.60
2019-01-10T08:37:42.533Z,2.60
2019-01-10T08:40:10.746Z,2.60
2019-01-10T08:42:38.815Z,2.70
2019-01-10T08:45:07.272Z,2.80
2019-01-10T08:47:35.353Z,2.90
2019-01-10T08:50:04.038Z,2.70
2019-01-10T08:52:32.086Z,2.60
2019-01-10T08:55:00.422Z,2.50
2019-01-10T08:57:28.486Z,2.40
2019-01-10T08:59:56.518Z,2.40
2019-01-10T09:02:24.618Z,2.50
2019-01-10T09:04:52.645Z,2.40
2019-01-10T09:07:20.730Z,2.30
2019-01-10T09:09:48.762Z,2.40
2019-01-10T09:12:16.825Z,2.30
2019-01-10T09:14:44.921Z,2.40
2019-01-10T09:17:12.952Z,2.30
2019-01-10T09:19:41.050Z,2.40
2019-01-10T09:22:09.115Z,2.30
2019-01-10T09:24:37.155Z,2.10
2019-01-10T09:27:05.423Z,2.20
2019-01-10T09:29:33.462Z,2.20
2019-01-10T09:32:01.534Z,2.30
2019-01-10T09:34:29.737Z,2.40
2019-01-10T09:36:58.134Z,2.50
2019-01-10T09:39:26.178Z,2.30
2019-01-10T09:41:54.246Z,2.40
2019-01-10T09:44:22.310Z,2.30
2019-01-10T09:46:50.386Z,2.60
2019-01-10T09:49:18.733Z,2.40
2019-01-10T09:51:46.851Z,2.40
2019-01-10T09:54:14.885Z,2.60
2019-01-10T09:56:42.972Z,2.40
2019-01-10T09:59:11.018Z,2.30
2019-01-10T10:01:39.055Z,2.30
2019-01-10T10:04:07.113Z,2.40
2019-01-10T10:06:35.158Z,2.50
2019-01-10T10:09:03.976Z,2.60
2019-01-10T10:11:34.131Z,2.70
2019-01-10T10:14:01.995Z,2.50
2019-01-10T10:16:30.107Z,2.40
2019-01-10T10:18:58.159Z,2.70
2019-01-10T10:21:26.266Z,2.90
2019-01-10T10:23:54.361Z,2.90
2019-01-10T10:26:22.469Z,2.90
2019-01-10T10:28:50.586Z,3.00
2019-01-10T10:31:18.642Z,2.60
2019-01-10T10:33:46.705Z,2.60
2019-01-10T10:36:14.778Z,2.70
2019-01-10T10:38:42.857Z,2.70
2019-01-10T10:41:10.958Z,2.80
2019-01-10T10:43:39.409Z,2.90
2019-01-10T10:46:07.506Z,3.10
2019-01-10T10:48:35.554Z,3.10
2019-01-10T10:51:03.618Z,3.00
2019-01-10T10:53:31.666Z,3.00
2019-01-10T10:55:59.730Z,3.10
2019-01-10T10:58:27.789Z,3.00
2019-01-10T11:00:55.946Z,2.60
2019-01-10T11:03:24.094Z,2.70
2019-01-10T11:05:52.177Z,2.60
2019-01-10T11:08:20.215Z,2.40
2019-01-10T11:10:48.348Z,2.40
2019-01-10T11:13:16.418Z,2.60
2019-01-10T11:15:44.521Z,2.60
2019-01-10T11:18:12.599Z,2.60
2019-01-10T11:20:40.658Z,2.70
2019-01-10T11:23:10.958Z,2.60
2019-01-10T11:25:38.495Z,2.60
2019-01-10T11:28:06.606Z,2.70
2019-01-10T11:30:34.675Z,2.80
2019-01-10T11:33:02.817Z,2.70
2019-01-10T11:35:52.561Z,2.70
2019-01-10T11:38:20.689Z,2.70
2019-01-10T11:40:48.968Z,2.80
2019-01-10T11:43:17.089Z,2.70
2019-01-10T11:45:45.118Z,2.60
2019-01-10T11:48:13.262Z,2.70
2019-01-10T11:50:41.357Z,2.80
2019-01-10T11:53:09.515Z,3.10
2019-01-10T11:55:37.557Z,3.00
2019-01-10T11:58:05.627Z,3.10
2019-01-10T12:00:34.008Z,3.10
2019-01-10T12:03:03.026Z,3.10
2019-01-10T12:05:31.142Z,3.30
2019-01-10T12:07:59.261Z,3.20
2019-01-10T12:10:27.610Z,3.10
2019-01-10T12:12:55.652Z,3.30
2019-01-10T12:15:23.773Z,3.10
2019-01-10T12:17:51.854Z,3.00
2019-01-10T12:20:19.902Z,3.10
2019-01-10T12:22:48.029Z,3.10
2019-01-10T12:25:16.837Z,2.80
2019-01-10T12:27:45.103Z,2.80
2019-01-10T12:30:15.147Z,2.80
2019-01-10T12:32:43.234Z,2.50
2019-01-10T12:35:11.343Z,2.50
2019-01-10T12:37:39.399Z,2.50
2019-01-10T12:40:08.666Z,2.70
2019-01-10T12:42:36.757Z,2.90
2019-01-10T12:45:05.533Z,3.00
2019-01-10T12:47:33.941Z,3.00
2019-01-10T12:50:05.162Z,2.90
2019-01-10T12:52:35.253Z,2.90
2019-01-10T12:55:03.042Z,3.00
2019-01-10T12:57:31.079Z,3.00
2019-01-10T12:59:59.238Z,2.90
2019-01-10T13:02:27.328Z,3.10
2019-01-10T13:04:55.469Z,3.10
2019-01-10T13:07:23.511Z,2.90
2019-01-10T13:09:51.608Z,2.90
2019-01-10T13:12:19.668Z,2.80
2019-01-10T13:14:47.727Z,2.80
2019-01-10T13:17:15.790Z,2.80
2019-01-10T13:19:43.837Z,2.90
2019-01-10T13:22:12.213Z,3.20
2019-01-10T13:24:40.252Z,3.20
2019-01-10T13:27:08.346Z,3.20
2019-01-10T13:29:36.634Z,3.00
2019-01-10T13:32:04.694Z,2.90
2019-01-10T13:34:32.775Z,2.80
2019-01-10T13:37:00.826Z,2.90
2019-01-10T13:39:28.882Z,2.90
2019-01-10T13:41:56.989Z,2.90
2019-01-10T13:44:25.057Z,2.80
2019-01-10T13:46:55.781Z,2.50
2019-01-10T13:49:22.970Z,2.40
2019-01-10T13:51:51.037Z,2.50
2019-01-10T13:54:19.506Z,2.70
2019-01-10T13:56:47.574Z,2.80
2019-01-10T13:59:15.619Z,3.00
2019-01-10T14:01:43.670Z,2.70
2019-01-10T14:06:43.921Z,2.80
2019-01-10T14:09:12.218Z,2.60
2019-01-10T14:11:40.327Z,2.80
2019-01-10T14:14:08.442Z,2.70
2019-01-10T14:16:36.574Z,2.60
2019-01-10T14:19:04.603Z,2.50
2019-01-10T14:21:33.839Z,2.40
2019-01-10T14:24:01.917Z,2.40
2019-01-10T14:26:30.035Z,2.50
2019-01-10T14:28:58.071Z,2.70
2019-01-10T14:31:26.133Z,2.60
2019-01-10T14:33:54.567Z,2.70
2019-01-10T14:36:23.031Z,2.60
2019-01-10T14:38:51.129Z,2.50
2019-01-10T14:41:19.290Z,2.50
2019-01-10T14:43:47.409Z,2.50
2019-01-10T14:46:15.479Z,2.50
2019-01-10T14:48:43.618Z,2.30
2019-01-10T14:51:11.716Z,2.30
2019-01-10T14:53:39.798Z,2.40
2019-01-10T14:56:07.934Z,2.40
2019-01-10T14:58:35.974Z,2.60
2019-01-10T15:01:04.589Z,2.70
2019-01-10T15:03:32.670Z,2.60
2019-01-10T15:06:00.706Z,2.40
2019-01-10T15:08:28.766Z,2.40
2019-01-10T15:10:57.169Z,2.40
2019-01-10T15:13:25.209Z,2.30
2019-01-10T15:15:53.377Z,2.20
2019-01-10T15:18:21.465Z,2.20
2019-01-10T15:20:49.570Z,2.30
2019-01-10T15:23:17.638Z,2.40
2019-01-10T15:25:45.696Z,2.40
2019-01-10T15:28:13.817Z,2.30
2019-01-10T15:30:41.896Z,2.30
2019-01-10T15:33:09.940Z,2.20
2019-01-10T15:35:38.286Z,2.20
2019-01-10T15:38:06.325Z,2.10
2019-01-10T15:40:34.405Z,2.20
2019-01-10T15:43:03.191Z,2.20
2019-01-10T15:45:31.229Z,2.20
2019-01-10T15:47:59.298Z,2.30
2019-01-10T15:50:27.369Z,2.40
2019-01-10T15:52:56.489Z,2.30
2019-01-10T15:55:24.525Z,2.20
2019-01-10T15:57:52.579Z,2.30
2019-01-10T16:00:21.571Z,2.30
2019-01-10T16:02:49.711Z,2.50
2019-01-10T16:05:17.858Z,2.60
2019-01-10T16:07:45.893Z,2.60
2019-01-10T16:10:14.714Z,2.70
2019-01-10T16:12:42.779Z,2.80
2019-01-10T16:15:11.911Z,2.90
2019-01-10T16:17:39.966Z,2.80
2019-01-10T16:20:08.109Z,2.80
2019-01-10T16:22:36.253Z,2.80
2019-01-10T16:25:05.113Z,2.70
2019-01-10T16:27:33.151Z,2.60
2019-01-10T16:30:01.208Z,2.70
2019-01-10T16:32:29.314Z,2.60
2019-01-10T16:34:58.507Z,2.70
2019-01-10T16:37:26.801Z,2.70
2019-01-10T16:39:54.981Z,2.50
2019-01-10T16:42:23.020Z,2.50
2019-01-10T16:44:51.105Z,2.50
2019-01-10T16:47:19.156Z,2.30
2019-01-10T16:49:47.190Z,2.30
2019-01-10T16:52:15.269Z,2.50
2019-01-10T16:54:43.306Z,2.60
2019-01-10T16:57:11.371Z,2.60
2019-01-10T16:59:39.766Z,2.50
2019-01-10T17:02:07.823Z,2.50
2019-01-10T17:04:35.901Z,2.50
2019-01-10T17:07:04.373Z,2.40
2019-01-10T17:09:32.442Z,2.60
2019-01-10T17:12:00.566Z,2.70
2019-01-10T17:14:28.670Z,2.70
2019-01-10T17:16:56.781Z,2.60
2019-01-10T17:19:24.870Z,2.40
2019-01-10T17:21:52.920Z,2.50
2019-01-10T17:24:21.062Z,2.50
2019-01-10T17:26:49.101Z,2.50
2019-01-10T17:29:17.146Z,2.50
2019-01-10T17:31:45.218Z,2.50
2019-01-10T17:34:13.273Z,2.60
2019-01-10T17:36:41.335Z,2.70
2019-01-10T17:39:09.598Z,2.60
2019-01-10T17:41:37.714Z,2.50
2019-01-10T17:44:05.774Z,2.60
2019-01-10T17:46:33.858Z,2.60
2019-01-10T17:49:01.920Z,2.50
2019-01-10T17:51:29.978Z,2.50
2019-01-10T17:53:58.117Z,2.50
2019-01-10T17:56:26.529Z,2.40
2019-01-10T17:58:54.569Z,2.40
2019-01-10T18:01:22.751Z,2.50
2019-01-10T18:03:50.838Z,2.30
2019-01-10T18:06:18.911Z,2.20
2019-01-10T18:08:46.994Z,2.20
2019-01-10T18:11:15.045Z,2.20
2019-01-10T18:13:43.102Z,2.20
2019-01-10T18:16:11.217Z,2.30
2019-01-10T18:18:39.258Z,2.20
2019-01-10T18:21:07.353Z,2.20
2019-01-10T18:23:35.477Z,2.20
2019-01-10T18:26:05.582Z,2.10
2019-01-10T18:28:33.651Z,2.30
2019-01-10T18:31:01.713Z,2.30
2019-01-10T18:33:29.781Z,2.40
2019-01-10T18:35:57.919Z,2.30
2019-01-10T18:38:25.982Z,2.30
2019-01-10T18:40:54.034Z,2.40
2019-01-10T18:43:22.099Z,2.20
2019-01-10T18:45:50.166Z,2.20
2019-01-10T18:48:18.388Z,2.20
2019-01-10T18:50:46.481Z,2.20
2019-01-10T18:53:14.595Z,2.20
2019-01-10T18:55:42.658Z,2.20
2019-01-10T18:58:10.742Z,2.20
2019-01-10T19:00:38.783Z,2.30
2019-01-10T19:03:07.165Z,2.40
2019-01-10T19:05:35.215Z,2.40
2019-01-10T19:08:04.539Z,2.40
2019-01-10T19:10:32.882Z,2.50
2019-01-10T19:13:00.939Z,2.40
2019-01-10T19:15:29.097Z,2.30
2019-01-10T19:18:03.137Z,2.20
2019-01-10T19:20:27.686Z,2.30
2019-01-10T19:22:56.479Z,2.30
2019-01-10T19:25:24.566Z,2.30
2019-01-10T19:27:52.622Z,2.30
2019-01-10T19:30:21.809Z,2.40
2019-01-10T19:32:50.094Z,2.40
2019-01-10T19:35:18.207Z,2.30
2019-01-10T19:37:46.261Z,2.30
2019-01-10T19:40:15.733Z,2.40
2019-01-10T19:42:43.814Z,2.30
2019-01-10T19:45:12.489Z,2.40
2019-01-10T19:47:40.553Z,2.30
2019-01-10T19:50:09.847Z,2.30
2019-01-10T19:52:37.966Z,2.30
2019-01-10T19:55:06.310Z,2.30
2019-01-10T19:57:34.369Z,2.30
2019-01-10T20:00:02.422Z,2.50
2019-01-10T20:02:30.489Z,2.50
2019-01-10T20:04:58.621Z,2.40
2019-01-10T20:07:26.661Z,2.30
2019-01-10T20:09:54.707Z,2.40
2019-01-10T20:12:22.785Z,2.40
2019-01-10T20:14:50.825Z,2.30
2019-01-10T20:17:18.913Z,2.40
2019-01-10T20:19:47.017Z,2.50
2019-01-10T20:22:15.155Z,2.40
2019-01-10T20:24:43.794Z,2.60
2019-01-10T20:27:13.050Z,2.50
2019-01-10T20:29:41.181Z,2.40
2019-01-10T20:32:09.338Z,2.40
2019-01-10T20:34:37.397Z,2.30
2019-01-10T20:37:05.466Z,2.20
2019-01-10T20:39:33.526Z,2.20
2019-01-10T20:42:01.941Z,2.20
2019-01-10T20:44:30.226Z,2.20
2019-01-10T20:46:58.291Z,2.20
2019-01-10T20:49:26.363Z,2.10
2019-01-10T20:51:54.398Z,2.20
2019-01-10T20:54:24.486Z,2.00
2019-01-10T20:56:52.565Z,2.00
2019-01-10T20:59:20.614Z,2.10
2019-01-10T21:01:49.046Z,2.10
2019-01-10T21:04:17.098Z,2.20
2019-01-10T21:06:45.154Z,2.20
2019-01-10T21:09:14.383Z,2.10
2019-01-10T21:11:42.426Z,2.10
2019-01-10T21:14:10.474Z,2.10
2019-01-10T21:16:38.601Z,2.10
2019-01-10T21:19:06.654Z,2.20
2019-01-10T21:21:34.707Z,2.30
2019-01-10T21:24:02.794Z,2.30
2019-01-10T21:26:30.865Z,2.40
2019-01-10T21:28:59.027Z,2.20
2019-01-10T21:31:27.094Z,2.20
2019-01-10T21:33:55.157Z,2.10
2019-01-10T21:36:23.198Z,2.10
2019-01-10T21:38:51.836Z,2.10
2019-01-10T21:41:19.890Z,2.10
2019-01-10T21:43:47.977Z,2.20
2019-01-10T21:46:17.241Z,2.10
2019-01-10T21:48:45.294Z,2.00
2019-01-10T21:51:13.778Z,2.10
2019-01-10T21:53:41.834Z,2.20
2019-01-10T21:56:10.197Z,2.10
2019-01-10T21:58:38.575Z,2.00
2019-01-10T22:01:06.646Z,2.10
2019-01-10T22:03:37.779Z,2.10
2019-01-10T22:06:05.840Z,2.00
2019-01-10T22:08:33.973Z,2.00
2019-01-10T22:11:02.210Z,2.10
2019-01-10T22:13:30.356Z,2.00
2019-01-10T22:15:58.421Z,2.00
2019-01-10T22:18:26.455Z,2.00
2019-01-10T22:20:54.890Z,2.10
2019-01-10T22:23:22.955Z,2.00
2019-01-10T22:25:51.069Z,2.10
2019-01-10T22:28:19.227Z,2.00
2019-01-10T22:30:47.267Z,2.10
2019-01-10T22:33:15.386Z,2.00
2019-01-10T22:35:43.437Z,2.00
2019-01-10T22:38:11.478Z,2.10
2019-01-10T22:40:39.626Z,2.00
2019-01-10T22:43:07.686Z,2.00
2019-01-10T22:45:35.809Z,2.20
2019-01-10T22:48:03.922Z,2.10
2019-01-10T22:50:31.983Z,2.10
2019-01-10T22:53:00.071Z,2.00
2019-01-10T22:55:28.111Z,2.00
2019-01-10T22:57:56.750Z,2.20
2019-01-10T23:00:52.081Z,2.20
2019-01-10T23:03:20.453Z,2.10
2019-01-10T23:05:48.521Z,2.20
2019-01-10T23:08:16.586Z,2.10
2019-01-10T23:10:44.663Z,2.10
2019-01-10T23:13:12.924Z,2.10
2019-01-10T23:15:40.995Z,2.20
2019-01-10T23:18:09.046Z,2.10
2019-01-10T23:20:37.322Z,2.00
2019-01-10T23:23:06.784Z,2.10
2019-01-10T23:25:34.822Z,2.10
2019-01-10T23:28:03.106Z,2.10
2019-01-10T23:30:48.412Z,2.10
2019-01-10T23:33:18.098Z,2.10
2019-01-10T23:35:46.214Z,2.10
2019-01-10T23:38:15.922Z,2.20
2019-01-10T23:40:43.981Z,2.20
2019-01-10T23:43:12.025Z,2.10
2019-01-10T23:45:41.929Z,2.20
2019-01-10T23:48:10.121Z,2.20
2019-01-10T23:50:38.167Z,2.20
2019-01-10T23:53:06.222Z,2.20
2019-01-10T23:55:34.282Z,2.20
2019-01-10T23:58:02.358Z,2.20
